Time;durP1;ratioP1;P1;durP2;ratioP2;P2;SDS_P1;SDS_P2;PMS_P1;PMS_P2;Temp;Humidity;BMP_temperature;BMP_pressure;BME280_temperature;BME280_humidity;BME280_pressure;Samples;Min_cycle;Max_cycle;Signal;HPM_P1;HPM_P2
2023/03/04 00:00:26;;;;;;;23.67;3.75;;;;;;;3.08;96.18;101536.16;5010843;28;20049;-79
2023/03/04 00:02:53;;;;;;;11.88;3.17;;;;;;;3.10;96.31;101528.44;5007544;28;20056;-79
2023/03/04 00:05:19;;;;;;;15.38;3.40;;;;;;;3.12;95.80;101532.84;5021226;28;20074;-83
2023/03/04 00:07:46;;;;;;;21.60;4.10;;;;;;;3.16;95.87;101536.44;5007340;28;20129;-77
2023/03/04 00:10:13;;;;;;;22.35;4.70;;;;;;;3.18;95.55;101532.19;4995841;28;20045;-77
2023/03/04 00:12:39;;;;;;;15.52;3.00;;;;;;;3.18;95.48;101539.06;5003635;28;20050;-79
2023/03/04 00:15:07;;;;;;;14.43;3.22;;;;;;;3.20;95.56;101540.00;5004936;28;20052;-79
2023/03/04 00:17:36;;;;;;;18.35;3.13;;;;;;;3.21;95.61;101534.88;4995787;28;20049;-79
2023/03/04 00:20:03;;;;;;;20.15;3.85;;;;;;;3.25;95.07;101528.13;5021052;28;20121;-82
2023/03/04 00:22:30;;;;;;;14.20;3.30;;;;;;;3.24;95.40;101534.13;5007278;28;20111;-78
2023/03/04 00:24:56;;;;;;;15.10;4.40;;;;;;;3.26;95.01;101528.16;5004210;28;20045;-75
2023/03/04 00:27:23;;;;;;;17.42;3.60;;;;;;;3.27;95.33;101531.63;5005168;28;20069;-77
2023/03/04 00:29:50;;;;;;;8.30;3.15;;;;;;;3.27;95.36;101529.94;5001847;28;20139;-76
2023/03/04 00:32:17;;;;;;;16.00;4.72;;;;;;;3.29;95.26;101524.81;4971543;28;20054;-78
2023/03/04 00:34:43;;;;;;;18.73;3.25;;;;;;;3.29;95.19;101527.38;4991226;28;20052;-78
2023/03/04 00:37:10;;;;;;;16.25;4.03;;;;;;;3.31;95.32;101529.22;4989986;28;20385;-77
2023/03/04 00:39:36;;;;;;;14.25;3.13;;;;;;;3.32;95.24;101524.91;4988795;28;20202;-77
2023/03/04 00:42:03;;;;;;;13.15;3.20;;;;;;;3.34;95.19;101522.34;4989583;28;20089;-78
2023/03/04 00:44:30;;;;;;;9.00;2.83;;;;;;;3.34;95.40;101530.13;4985265;28;20042;-77
2023/03/04 00:46:56;;;;;;;31.92;5.72;;;;;;;3.35;95.05;101518.94;4980373;28;20340;-78
2023/03/04 00:49:23;;;;;;;12.57;3.90;;;;;;;3.36;95.17;101525.91;5001662;28;20132;-82
2023/03/04 00:51:49;;;;;;;17.42;5.28;;;;;;;3.37;94.72;101525.06;5001139;28;20213;-80
2023/03/04 00:54:16;;;;;;;9.77;4.18;;;;;;;3.37;94.96;101525.94;4989149;28;20766;-77
2023/03/04 00:56:43;;;;;;;16.35;4.70;;;;;;;3.40;95.18;101520.00;4974767;28;20057;-77
2023/03/04 00:59:09;;;;;;;18.65;4.38;;;;;;;3.38;94.94;101519.06;5003492;28;20037;-77
2023/03/04 01:01:35;;;;;;;14.32;3.80;;;;;;;3.39;95.03;101521.72;5003253;28;20150;-76
2023/03/04 01:04:02;;;;;;;13.70;4.05;;;;;;;3.39;95.04;101518.22;4976054;28;20053;-77
2023/03/04 01:06:28;;;;;;;15.63;3.78;;;;;;;3.37;95.52;101518.19;4988274;28;20395;-77
2023/03/04 01:08:55;;;;;;;11.77;4.00;;;;;;;3.37;95.60;101512.13;4991693;28;20042;-76
2023/03/04 01:11:22;;;;;;;16.30;5.78;;;;;;;3.37;95.44;101505.22;4973202;28;20103;-80
2023/03/04 01:13:48;;;;;;;10.50;3.30;;;;;;;3.37;95.53;101506.97;4994497;28;20046;-84
2023/03/04 01:16:15;;;;;;;12.85;3.28;;;;;;;3.39;95.40;101502.69;4995043;28;20037;-77
2023/03/04 01:18:42;;;;;;;16.25;3.50;;;;;;;3.39;95.53;101500.09;4977016;28;20054;-81
2023/03/04 01:21:08;;;;;;;15.18;3.55;;;;;;;3.39;95.66;101505.28;5003162;28;20050;-78
2023/03/04 01:23:34;;;;;;;12.23;2.97;;;;;;;3.41;95.78;101499.31;5006296;28;20378;-77
2023/03/04 01:26:01;;;;;;;11.00;3.17;;;;;;;3.42;95.65;101492.47;4990917;28;20538;-76
2023/03/04 01:28:28;;;;;;;8.05;2.85;;;;;;;3.42;95.74;101493.34;5013613;28;20827;-77
2023/03/04 01:30:54;;;;;;;15.00;3.42;;;;;;;3.41;95.95;101481.22;5027183;28;20502;-79
2023/03/04 01:33:21;;;;;;;13.85;3.65;;;;;;;3.43;95.67;101481.28;5012838;28;20053;-78
2023/03/04 01:35:47;;;;;;;9.35;2.90;;;;;;;3.43;95.75;101487.34;5031014;28;20085;-78
2023/03/04 01:38:14;;;;;;;9.52;2.67;;;;;;;3.43;95.78;101482.16;5025796;28;20052;-77
2023/03/04 01:40:40;;;;;;;15.20;3.05;;;;;;;3.43;96.16;101476.13;5013302;28;20673;-77
2023/03/04 01:43:07;;;;;;;7.20;2.28;;;;;;;3.42;96.16;101472.63;5009150;28;20040;-80
2023/03/04 01:45:35;;;;;;;13.35;3.03;;;;;;;3.44;96.12;101470.97;5025251;28;20057;-78
2023/03/04 01:48:01;;;;;;;10.48;2.63;;;;;;;3.46;96.26;101461.53;5029395;28;20332;-75
2023/03/04 01:50:35;;;;;;;14.13;3.42;;;;;;;3.46;96.17;101456.38;5012273;28;20815;-80
2023/03/04 01:53:03;;;;;;;12.20;2.88;;;;;;;3.47;96.29;101454.66;5009526;28;20049;-77
2023/03/04 01:55:33;;;;;;;15.05;3.20;;;;;;;3.49;96.25;101445.22;5032318;28;20044;-75
2023/03/04 01:58:00;;;;;;;14.73;3.20;;;;;;;3.50;95.82;101447.00;5028124;28;20065;-76
2023/03/04 02:00:33;;;;;;;9.73;3.00;;;;;;;3.48;96.49;101436.59;5027515;28;20052;-80
2023/03/04 02:03:06;;;;;;;6.25;1.63;;;;;;;3.48;96.60;101435.69;4998259;28;20060;-78
2023/03/04 02:05:36;;;;;;;11.65;3.72;;;;;;;3.50;96.70;101436.66;5012166;28;20511;-77
2023/03/04 02:08:04;;;;;;;9.65;2.92;;;;;;;3.51;97.04;101428.06;4994018;28;20778;-79
2023/03/04 02:10:32;;;;;;;14.63;2.55;;;;;;;3.53;97.10;101425.50;5027494;28;20040;-77
2023/03/04 02:13:00;;;;;;;13.20;2.75;;;;;;;3.53;96.88;101422.91;5031792;28;20053;-79
2023/03/04 02:15:28;;;;;;;14.48;3.70;;;;;;;3.54;96.83;101422.97;5025162;28;20064;-77
2023/03/04 02:17:55;;;;;;;15.68;2.35;;;;;;;3.54;96.99;101415.19;5005872;28;20464;-78
2023/03/04 02:20:56;;;;;;;19.55;3.72;;;;;;;3.58;96.90;101416.19;4995531;28;20045;-85
2023/03/04 02:23:33;;;;;;;9.95;2.22;;;;;;;3.57;97.00;101407.53;5011649;28;20097;-81
2023/03/04 02:26:26;;;;;;;6.35;2.78;;;;;;;3.59;97.14;101413.63;5029041;28;20045;-76
2023/03/04 02:28:55;;;;;;;7.00;1.57;;;;;;;3.60;97.08;101415.41;5010579;28;20065;-80
2023/03/04 02:31:40;;;;;;;12.30;1.65;;;;;;;3.61;97.35;101406.81;4990772;28;20049;-80
2023/03/04 02:34:16;;;;;;;6.20;1.73;;;;;;;3.62;96.86;101403.41;4989351;28;20057;-81
2023/03/04 02:36:45;;;;;;;10.07;2.72;;;;;;;3.66;96.84;101411.25;4989216;28;20046;-79
2023/03/04 02:39:20;;;;;;;10.02;2.80;;;;;;;3.65;97.05;101402.63;4987525;28;20042;-78
2023/03/04 02:41:49;;;;;;;8.60;2.33;;;;;;;3.66;97.06;101401.75;4987711;28;20460;-77
2023/03/04 02:44:20;;;;;;;14.63;3.42;;;;;;;3.67;97.05;101395.75;4993186;28;20599;-79
2023/03/04 02:46:47;;;;;;;6.78;2.15;;;;;;;3.69;97.16;101401.88;4990832;28;20042;-77
2023/03/04 02:49:14;;;;;;;3.33;1.27;;;;;;;3.69;97.11;101390.63;4979092;28;20042;-81
2023/03/04 02:51:42;;;;;;;9.55;1.50;;;;;;;3.72;97.23;101393.31;4996659;28;20049;-77
2023/03/04 02:54:21;;;;;;;13.88;2.17;;;;;;;3.72;97.16;101395.91;4993976;28;20034;-75
2023/03/04 02:57:01;;;;;;;6.38;1.52;;;;;;;3.73;97.15;101393.38;4995921;28;20046;-77
2023/03/04 02:59:28;;;;;;;10.48;2.95;;;;;;;3.75;96.99;101396.00;4992396;28;20038;-81
2023/03/04 03:01:55;;;;;;;5.43;1.55;;;;;;;3.76;97.09;101403.81;4985907;28;20443;-76
2023/03/04 03:04:23;;;;;;;7.53;2.22;;;;;;;3.75;97.20;101404.63;5008100;28;20065;-82
2023/03/04 03:06:49;;;;;;;15.30;2.20;;;;;;;3.77;97.08;101395.22;4993024;28;20045;-81
2023/03/04 03:09:16;;;;;;;10.52;1.83;;;;;;;3.77;97.59;101399.53;4991394;28;20137;-76
2023/03/04 03:11:43;;;;;;;8.63;1.70;;;;;;;3.78;97.23;101398.66;4993534;28;20050;-78
2023/03/04 03:14:10;;;;;;;8.60;2.13;;;;;;;3.78;97.47;101398.66;4992304;28;20041;-77
2023/03/04 03:16:36;;;;;;;8.30;1.60;;;;;;;3.77;97.77;101394.34;4980511;28;20569;-76
2023/03/04 03:19:03;;;;;;;10.63;1.52;;;;;;;3.77;97.95;101391.75;4993441;28;20393;-79
2023/03/04 03:21:29;;;;;;;3.83;1.60;;;;;;;3.75;97.98;101394.28;4990262;28;20405;-79
2023/03/04 03:23:56;;;;;;;3.95;1.20;;;;;;;3.74;98.36;101387.38;5007231;28;20069;-75
2023/03/04 03:26:23;;;;;;;7.20;2.45;;;;;;;3.72;98.36;101385.56;5005993;28;20050;-88
2023/03/04 03:28:49;;;;;;;5.10;1.60;;;;;;;3.74;98.23;101389.06;5002751;28;20065;-76
2023/03/04 03:31:16;;;;;;;6.95;2.35;;;;;;;3.74;98.63;101384.78;5008573;28;20048;-76
2023/03/04 03:33:42;;;;;;;10.02;1.23;;;;;;;3.75;98.63;101389.09;5003993;28;20574;-76
2023/03/04 03:36:09;;;;;;;11.77;1.88;;;;;;;3.75;98.68;101388.22;5004028;28;20052;-77
2023/03/04 03:38:35;;;;;;;7.68;1.10;;;;;;;3.76;98.82;101383.09;5005385;28;20477;-80
2023/03/04 03:41:02;;;;;;;4.78;1.38;;;;;;;3.77;98.51;101377.09;5026112;28;20115;-76
2023/03/04 03:43:28;;;;;;;4.63;1.05;;;;;;;3.76;98.72;101377.91;5021865;28;20501;-79
2023/03/04 03:45:55;;;;;;;4.88;1.42;;;;;;;3.75;98.86;101367.50;5010540;28;20034;-78
2023/03/04 03:48:21;;;;;;;8.68;2.00;;;;;;;3.75;99.14;101373.56;5011632;28;20041;-80
2023/03/04 03:50:48;;;;;;;8.32;2.40;;;;;;;3.76;99.14;101371.88;5028696;28;20042;-79
2023/03/04 03:53:14;;;;;;;8.63;1.38;;;;;;;3.75;99.18;101373.56;5009381;28;20124;-79
2023/03/04 03:55:41;;;;;;;8.38;0.98;;;;;;;3.76;99.38;101371.88;5027400;28;20117;-76
2023/03/04 03:58:08;;;;;;;8.73;2.08;;;;;;;3.77;99.51;101373.63;5016520;28;20041;-76
2023/03/04 04:00:34;;;;;;;4.40;1.58;;;;;;;3.75;99.58;101373.56;5032041;28;20048;-79
2023/03/04 04:03:01;;;;;;;8.10;1.60;;;;;;;3.75;99.59;101370.97;5014414;28;20045;-78
2023/03/04 04:05:28;;;;;;;11.55;1.42;;;;;;;3.76;99.76;101379.63;5036110;28;20041;-76
2023/03/04 04:07:54;;;;;;;10.57;1.40;;;;;;;3.75;99.65;101364.91;5005866;28;20558;-76
2023/03/04 04:10:21;;;;;;;6.05;1.08;;;;;;;3.75;99.88;101367.50;5026356;28;20551;-78
2023/03/04 04:12:47;;;;;;;6.97;2.10;;;;;;;3.75;100.00;101370.09;5016544;28;20049;-77
2023/03/04 04:15:14;;;;;;;3.42;0.98;;;;;;;3.73;100.00;101371.75;5009008;28;20117;-78
2023/03/04 04:17:40;;;;;;;4.47;1.10;;;;;;;3.69;100.00;101369.91;5013057;28;20041;-75
2023/03/04 04:20:09;;;;;;;5.18;1.20;;;;;;;3.66;100.00;101365.50;5025996;28;20037;-76
2023/03/04 04:22:35;;;;;;;16.48;2.80;;;;;;;3.64;100.00;101373.22;5029505;28;20040;-78
2023/03/04 04:25:02;;;;;;;8.20;2.20;;;;;;;3.63;100.00;101365.44;5040592;28;20029;-75
2023/03/04 04:27:28;;;;;;;10.65;1.77;;;;;;;3.59;100.00;101355.81;4995995;28;20044;-76
2023/03/04 04:29:55;;;;;;;8.63;1.48;;;;;;;3.50;100.00;101364.16;5009346;28;20041;-78
2023/03/04 04:32:22;;;;;;;7.43;1.40;;;;;;;3.39;100.00;101363.84;4996538;28;20050;-83
2023/03/04 04:34:48;;;;;;;11.23;1.58;;;;;;;3.33;100.00;101362.75;5011280;28;20556;-76
2023/03/04 04:37:15;;;;;;;7.68;1.20;;;;;;;3.29;100.00;101361.78;5014521;28;20839;-76
2023/03/04 04:39:41;;;;;;;8.10;1.58;;;;;;;3.22;100.00;101360.69;4993750;28;20053;-75
2023/03/04 04:42:11;;;;;;;16.60;1.58;;;;;;;3.20;100.00;101358.88;5006952;28;20045;-75
2023/03/04 04:44:38;;;;;;;8.20;1.55;;;;;;;3.19;100.00;101351.94;5026732;28;20120;-76
2023/03/04 04:47:06;;;;;;;9.40;2.33;;;;;;;3.17;100.00;101353.59;5012265;28;20142;-78
2023/03/04 04:49:32;;;;;;;6.20;1.55;;;;;;;3.16;100.00;101352.72;5012267;28;20049;-77
2023/03/04 04:51:59;;;;;;;4.78;1.20;;;;;;;3.17;100.00;101345.84;4995187;28;20041;-76
2023/03/04 04:54:25;;;;;;;13.23;2.65;;;;;;;3.18;100.00;101345.00;5010266;28;20152;-76
2023/03/04 04:56:52;;;;;;;12.45;2.30;;;;;;;3.17;100.00;101353.59;5011701;28;20049;-76
2023/03/04 04:59:18;;;;;;;11.05;2.53;;;;;;;3.14;100.00;101346.63;5014763;28;20056;-76
2023/03/04 05:01:45;;;;;;;5.22;1.55;;;;;;;3.13;100.00;101332.81;5029555;28;20041;-79
2023/03/04 05:04:11;;;;;;;6.07;1.50;;;;;;;3.14;100.00;101333.69;5012741;28;20038;-76
2023/03/04 05:06:38;;;;;;;4.00;1.40;;;;;;;3.13;100.00;101332.81;5010459;28;20041;-77
2023/03/04 05:09:10;;;;;;;9.05;1.88;;;;;;;3.17;100.00;101346.75;5011881;28;20033;-74
2023/03/04 05:11:36;;;;;;;7.32;2.63;;;;;;;3.17;100.00;101333.81;5014037;28;20116;-75
2023/03/04 05:14:03;;;;;;;7.22;1.27;;;;;;;3.19;100.00;101339.00;5012444;28;20052;-78
2023/03/04 05:16:30;;;;;;;6.75;1.70;;;;;;;3.16;100.00;101329.44;5027397;28;20108;-79
2023/03/04 05:18:56;;;;;;;8.18;1.48;;;;;;;3.20;100.00;101330.44;5009855;28;20064;-75
2023/03/04 05:21:23;;;;;;;5.43;1.42;;;;;;;3.19;100.00;101321.78;5021342;28;20049;-75
2023/03/04 05:23:49;;;;;;;4.38;1.48;;;;;;;3.18;100.00;101325.22;5022511;28;20037;-76
2023/03/04 05:26:18;;;;;;;7.07;1.90;;;;;;;3.14;100.00;101315.56;5010848;28;20595;-79
2023/03/04 05:28:45;;;;;;;6.70;2.47;;;;;;;3.10;100.00;101319.78;5002807;28;20129;-79
2023/03/04 05:31:12;;;;;;;8.57;2.15;;;;;;;3.09;100.00;101323.19;4995024;28;20231;-78
2023/03/04 05:33:42;;;;;;;6.90;1.40;;;;;;;3.10;100.00;101329.25;5005836;28;20054;-79
2023/03/04 05:36:09;;;;;;;6.05;1.75;;;;;;;3.10;100.00;101324.06;5004968;28;20030;-76
2023/03/04 05:38:36;;;;;;;2.15;1.58;;;;;;;3.09;100.00;101319.72;5001418;28;20523;-77
2023/03/04 05:41:06;;;;;;;5.25;1.38;;;;;;;3.11;100.00;101331.88;4991722;28;20534;-76
2023/03/04 05:43:34;;;;;;;7.38;1.80;;;;;;;3.12;100.00;101330.19;4993255;28;20496;-80
2023/03/04 05:46:03;;;;;;;6.20;1.63;;;;;;;3.05;100.00;101328.22;5008513;28;20049;-76
2023/03/04 05:48:30;;;;;;;5.05;1.27;;;;;;;2.99;100.00;101323.72;4997741;28;20490;-75
2023/03/04 05:51:00;;;;;;;6.50;2.67;;;;;;;2.96;100.00;101323.63;5012719;28;20088;-77
2023/03/04 05:53:28;;;;;;;6.95;2.97;;;;;;;2.97;100.00;101325.38;4995414;28;20116;-78
2023/03/04 05:55:55;;;;;;;3.25;1.13;;;;;;;3.00;100.00;101325.50;5011390;28;20056;-76
2023/03/04 05:58:22;;;;;;;11.75;2.28;;;;;;;3.01;100.00;101319.47;5010923;28;20046;-78
2023/03/04 06:00:48;;;;;;;3.88;1.33;;;;;;;3.06;100.00;101330.84;4977822;28;20051;-76
2023/03/04 06:03:22;;;;;;;7.05;1.90;;;;;;;3.07;100.00;101335.19;4996349;28;20129;-79
2023/03/04 06:05:49;;;;;;;7.47;2.00;;;;;;;3.08;100.00;101334.38;4998499;28;20100;-77
2023/03/04 06:08:19;;;;;;;5.15;1.30;;;;;;;3.10;100.00;101327.56;4996899;28;20100;-76
2023/03/04 06:10:45;;;;;;;6.93;1.65;;;;;;;3.13;100.00;101321.59;5003471;28;20038;-75
2023/03/04 06:13:12;;;;;;;9.88;1.73;;;;;;;3.12;100.00;101317.25;4989262;28;20054;-78
2023/03/04 06:15:40;;;;;;;5.70;2.08;;;;;;;3.13;100.00;101314.72;5006934;28;20058;-78
2023/03/04 06:18:08;;;;;;;6.80;1.42;;;;;;;3.11;100.00;101326.69;4989403;28;20038;-79
2023/03/04 06:20:36;;;;;;;6.28;1.83;;;;;;;3.12;100.00;101320.69;5007016;28;20050;-78
2023/03/04 06:23:04;;;;;;;7.05;1.52;;;;;;;3.14;100.00;101328.50;4976028;28;20042;-81
2023/03/04 06:25:31;;;;;;;6.22;1.30;;;;;;;3.15;100.00;101325.09;4996066;28;20136;-80
2023/03/04 06:27:58;;;;;;;8.23;2.58;;;;;;;3.11;100.00;101326.69;4993425;28;20045;-78
2023/03/04 06:30:24;;;;;;;1.33;0.80;;;;;;;3.11;100.00;101316.34;5026034;28;20049;-78
2023/03/04 06:32:51;;;;;;;6.53;1.65;;;;;;;3.13;100.00;101321.59;5011833;28;20042;-79
2023/03/04 06:35:17;;;;;;;4.85;1.65;;;;;;;3.16;100.00;101326.84;5030808;28;20042;-76
2023/03/04 06:37:50;;;;;;;4.55;1.20;;;;;;;3.18;100.00;101316.56;5014976;28;20175;-77
2023/03/04 06:40:16;;;;;;;4.75;1.60;;;;;;;3.17;100.00;101326.03;5013296;28;20041;-78
2023/03/04 06:42:43;;;;;;;4.70;1.48;;;;;;;3.19;100.00;101323.50;5025195;28;20049;-80
2023/03/04 06:45:10;;;;;;;5.20;1.52;;;;;;;3.23;100.00;101327.94;5012500;28;20488;-78
2023/03/04 06:47:37;;;;;;;4.28;1.08;;;;;;;3.28;100.00;101326.38;5017694;28;20477;-79
2023/03/04 06:50:05;;;;;;;5.18;1.92;;;;;;;3.34;100.00;101330.84;5009156;28;20471;-79
2023/03/04 06:52:32;;;;;;;8.50;2.25;;;;;;;3.41;100.00;101322.47;5023218;28;20048;-80
2023/03/04 06:54:58;;;;;;;2.17;1.15;;;;;;;3.44;100.00;101323.44;5031244;28;20041;-77
2023/03/04 06:57:25;;;;;;;4.30;1.52;;;;;;;3.41;100.00;101327.63;5027749;28;20038;-77
2023/03/04 06:59:51;;;;;;;6.03;1.30;;;;;;;3.34;100.00;101323.97;5014280;28;20044;-79
2023/03/04 07:02:18;;;;;;;6.35;1.60;;;;;;;3.33;100.00;101324.81;5015764;28;20132;-82
2023/03/04 07:04:44;;;;;;;5.78;1.23;;;;;;;3.34;100.00;101331.75;5021136;28;20041;-81
2023/03/04 07:07:12;;;;;;;2.60;1.00;;;;;;;3.37;100.00;101328.38;5019524;28;20062;-77
2023/03/04 07:09:38;;;;;;;7.28;3.13;;;;;;;3.38;100.00;101317.19;5016769;28;20370;-78
2023/03/04 07:12:05;;;;;;;6.78;1.65;;;;;;;3.39;100.00;101324.13;5016182;28;20042;-75
2023/03/04 07:14:32;;;;;;;8.05;1.40;;;;;;;3.41;100.00;101322.47;5006134;28;20462;-78
2023/03/04 07:16:58;;;;;;;9.38;1.83;;;;;;;3.46;100.00;101320.91;5027549;28;20037;-82
2023/03/04 07:19:25;;;;;;;8.85;1.35;;;;;;;3.44;100.00;101328.63;5016047;28;20357;-81
2023/03/04 07:21:53;;;;;;;10.35;1.38;;;;;;;3.44;100.00;101322.53;5007558;28;20045;-82
2023/03/04 07:24:19;;;;;;;4.95;1.55;;;;;;;3.39;100.00;101334.47;4997422;28;20038;-78
2023/03/04 07:26:46;;;;;;;6.43;1.27;;;;;;;3.34;100.00;101331.75;5023998;28;20067;-78
2023/03/04 07:29:13;;;;;;;5.55;1.35;;;;;;;3.29;100.00;101339.34;5011534;28;20046;-78
2023/03/04 07:31:39;;;;;;;14.57;2.30;;;;;;;3.28;100.00;101341.91;5007419;28;20046;-77
2023/03/04 07:34:09;;;;;;;8.05;1.38;;;;;;;3.31;100.00;101339.41;5018151;28;20140;-78
2023/03/04 07:36:37;;;;;;;6.03;1.40;;;;;;;3.39;100.00;101335.34;5022864;28;20038;-76
2023/03/04 07:39:05;;;;;;;4.55;1.17;;;;;;;3.43;100.00;101324.28;5013318;28;20045;-79
2023/03/04 07:41:35;;;;;;;4.95;1.65;;;;;;;3.52;100.00;101330.56;4995039;28;20053;-78
2023/03/04 07:44:06;;;;;;;7.90;2.15;;;;;;;3.60;100.00;101339.44;5011104;28;20576;-79
2023/03/04 07:46:33;;;;;;;8.45;2.10;;;;;;;3.66;100.00;101337.03;5025369;28;20072;-80
2023/03/04 07:49:04;;;;;;;4.65;1.73;;;;;;;3.71;100.00;101332.00;5008341;28;20045;-79
2023/03/04 07:51:31;;;;;;;7.60;1.50;;;;;;;3.73;100.00;101332.91;4990814;28;20037;-78
2023/03/04 07:54:03;;;;;;;2.28;1.17;;;;;;;3.71;100.00;101335.47;5008824;28;20069;-78
2023/03/04 07:56:33;;;;;;;8.02;1.90;;;;;;;3.71;100.00;101335.47;5012259;28;20046;-75
2023/03/04 07:59:01;;;;;;;3.45;1.52;;;;;;;3.72;100.00;101332.03;5006779;28;20053;-76
2023/03/04 08:01:32;;;;;;;7.55;1.88;;;;;;;3.70;100.00;101328.50;5013487;28;20041;-82
2023/03/04 08:03:59;;;;;;;7.35;1.63;;;;;;;3.70;100.00;101323.34;5013554;28;20064;-76
2023/03/04 08:06:26;;;;;;;4.03;1.50;;;;;;;3.70;100.00;101331.09;5014853;28;20057;-76
2023/03/04 08:09:04;;;;;;;3.50;1.52;;;;;;;3.72;100.00;101326.84;5019561;28;20044;-77
2023/03/04 08:11:32;;;;;;;6.28;1.50;;;;;;;3.77;100.00;101327.88;5011427;28;20061;-79
2023/03/04 08:14:09;;;;;;;7.00;1.75;;;;;;;3.82;100.00;101325.44;5004796;28;20558;-81
2023/03/04 08:16:35;;;;;;;8.68;1.45;;;;;;;3.85;100.00;101324.66;5009010;28;20432;-79
2023/03/04 08:19:03;;;;;;;6.78;2.42;;;;;;;3.89;100.00;101329.94;4997054;28;20073;-77
2023/03/04 08:21:30;;;;;;;3.38;1.67;;;;;;;3.90;100.00;101323.06;5017129;28;20037;-75
2023/03/04 08:24:01;;;;;;;2.40;1.30;;;;;;;3.86;100.00;101319.50;5027772;28;20050;-81
2023/03/04 08:26:33;;;;;;;3.10;1.30;;;;;;;3.83;100.00;101319.41;4998292;28;20048;-85
2023/03/04 08:29:03;;;;;;;4.05;1.85;;;;;;;3.81;100.00;101326.25;5023430;28;20057;-76
2023/03/04 08:31:32;;;;;;;5.75;2.17;;;;;;;3.76;100.00;101326.13;5027547;28;20128;-82
2023/03/04 08:33:59;;;;;;;3.88;1.85;;;;;;;3.76;100.00;101322.66;5024522;28;20049;-78
2023/03/04 08:36:26;;;;;;;6.72;1.90;;;;;;;3.76;100.00;101325.25;5025461;28;20052;-79
2023/03/04 08:38:52;;;;;;;9.60;2.10;;;;;;;3.77;100.00;101325.28;5010611;28;20056;-76
2023/03/04 08:41:19;;;;;;;6.22;2.55;;;;;;;3.80;100.00;101324.50;5005680;28;20054;-83
2023/03/04 08:43:48;;;;;;;9.35;2.22;;;;;;;3.79;100.00;101315.88;5011680;28;20052;-76
2023/03/04 08:46:15;;;;;;;6.25;2.08;;;;;;;3.81;100.00;101315.91;5007058;28;20057;-76
2023/03/04 08:48:41;;;;;;;5.95;2.35;;;;;;;3.79;100.00;101323.63;5011395;28;20048;-78
2023/03/04 08:51:16;;;;;;;6.25;1.70;;;;;;;3.78;100.00;101326.16;4998228;28;20068;-84
2023/03/04 08:53:43;;;;;;;6.82;1.88;;;;;;;3.77;100.00;101321.84;5011762;28;20038;-78
2023/03/04 08:56:11;;;;;;;6.65;2.28;;;;;;;3.76;100.00;101322.66;5010130;28;20048;-79
2023/03/04 08:58:38;;;;;;;1.73;1.63;;;;;;;3.74;100.00;101316.53;5006729;28;20268;-76
2023/03/04 09:01:07;;;;;;;2.00;1.73;;;;;;;3.75;100.00;101326.06;5018337;28;20056;-82
2023/03/04 09:03:34;;;;;;;2.42;1.90;;;;;;;3.79;100.00;101320.16;5006961;28;20148;-78
2023/03/04 09:06:03;;;;;;;6.30;2.17;;;;;;;3.83;100.00;101319.41;5021255;28;20052;-80
2023/03/04 09:08:30;;;;;;;4.90;2.00;;;;;;;3.90;100.00;101323.94;5002647;28;20080;-78
2023/03/04 09:10:57;;;;;;;5.90;1.60;;;;;;;4.00;100.00;101322.47;5003431;28;20049;-77
2023/03/04 09:13:25;;;;;;;3.67;1.50;;;;;;;4.13;100.00;101323.72;5017466;28;20049;-77
2023/03/04 09:15:52;;;;;;;3.55;1.92;;;;;;;4.26;100.00;101330.13;5000023;28;20140;-77
2023/03/04 09:18:22;;;;;;;6.00;1.52;;;;;;;4.38;100.00;101332.16;5019156;28;20075;-75
2023/03/04 09:20:49;;;;;;;5.88;1.98;;;;;;;4.49;100.00;101341.13;4999142;28;20049;-77
2023/03/04 09:23:17;;;;;;;3.85;1.60;;;;;;;4.61;100.00;101333.66;5006337;28;20041;-78
2023/03/04 09:25:46;;;;;;;4.38;2.22;;;;;;;4.76;100.00;101334.94;5005197;28;20609;-79
2023/03/04 09:28:16;;;;;;;3.58;2.03;;;;;;;4.88;100.00;101331.78;5003458;28;20054;-78
2023/03/04 09:30:43;;;;;;;7.28;3.08;;;;;;;4.82;100.00;101335.06;4986358;28;20049;-75
2023/03/04 09:33:10;;;;;;;8.80;2.85;;;;;;;4.75;100.00;101335.75;4987451;28;20757;-76
2023/03/04 09:35:37;;;;;;;9.82;2.65;;;;;;;4.69;100.00;101338.19;5004807;28;20041;-80
2023/03/04 09:38:04;;;;;;;9.48;5.35;;;;;;;4.57;100.00;101341.34;4988084;28;20061;-75
2023/03/04 09:40:43;;;;;;;9.50;4.47;;;;;;;4.53;100.00;101342.97;4987422;28;20454;-86
2023/03/04 09:43:22;;;;;;;3.85;2.55;;;;;;;4.65;100.00;101345.00;4974660;28;20341;-81
2023/03/04 09:45:54;;;;;;;5.30;2.65;;;;;;;4.97;100.00;101340.63;5006050;28;20049;-79
2023/03/04 09:48:25;;;;;;;3.67;1.98;;;;;;;5.22;100.00;101330.88;4987556;28;20050;-79
2023/03/04 09:51:17;;;;;;;6.18;1.70;;;;;;;5.21;100.00;101339.47;4971928;28;20511;-78
2023/03/04 09:54:09;;;;;;;8.35;2.03;;;;;;;5.08;100.00;101334.84;5005663;28;20042;-75
2023/03/04 09:56:39;;;;;;;6.95;1.80;;;;;;;4.86;100.00;101339.47;5010752;28;20041;-76
2023/03/04 09:59:29;;;;;;;3.90;2.08;;;;;;;4.68;100.00;101337.31;4993634;28;20053;-84
2023/03/04 10:01:59;;;;;;;8.27;3.13;;;;;;;4.56;100.00;101348.25;5007622;28;20050;-76
2023/03/04 10:04:39;;;;;;;5.57;2.20;;;;;;;4.58;100.00;101336.19;4991267;28;20054;-80
2023/03/04 10:07:19;;;;;;;3.65;2.40;;;;;;;4.61;100.00;101332.78;4994375;28;20056;-84
2023/03/04 10:10:03;;;;;;;5.32;1.98;;;;;;;4.61;100.00;101341.44;5001360;28;20038;-79
2023/03/04 10:12:35;;;;;;;8.55;2.40;;;;;;;4.67;100.00;101332.06;4991947;28;20038;-82
2023/03/04 10:15:10;;;;;;;7.13;1.70;;;;;;;4.66;100.00;101326.00;4992221;28;20065;-77
2023/03/04 10:17:41;;;;;;;4.68;2.45;;;;;;;4.74;100.00;101326.22;4999875;28;20045;-79
2023/03/04 10:20:16;;;;;;;6.70;2.75;;;;;;;4.78;100.00;101328.94;5007070;28;20133;-79
2023/03/04 10:22:54;;;;;;;11.95;2.80;;;;;;;4.84;100.00;101329.91;5004133;28;20042;-78
2023/03/04 10:25:28;;;;;;;9.90;2.25;;;;;;;4.93;100.00;101333.63;4987657;28;20065;-77
2023/03/04 10:28:27;;;;;;;9.60;2.20;;;;;;;4.97;100.00;101339.78;5005781;28;20048;-84
2023/03/04 10:31:08;;;;;;;7.95;1.70;;;;;;;4.97;100.00;101329.41;4989867;28;20062;-81
2023/03/04 10:33:40;;;;;;;8.98;2.03;;;;;;;4.98;100.00;101333.75;5011747;28;20037;-80
2023/03/04 10:36:27;;;;;;;5.65;1.88;;;;;;;5.05;100.00;101329.59;5012278;28;20072;-79
2023/03/04 10:39:19;;;;;;;5.82;2.10;;;;;;;5.53;100.00;101326.38;5010481;28;20476;-79
2023/03/04 10:41:59;;;;;;;12.00;2.28;;;;;;;6.10;99.95;101319.84;4989647;28;20057;-78
2023/03/04 10:44:27;;;;;;;12.38;2.78;;;;;;;6.72;96.65;101315.78;4995204;28;20098;-76
2023/03/04 10:53:48;;;;;;;5.85;2.83;;;;;;;7.83;86.30;101300.94;4992844;28;20384;-78
2023/03/04 10:56:44;;;;;;;7.10;1.75;;;;;;;8.11;82.32;101314.34;4978829;28;20045;-78
2023/03/04 11:00:13;;;;;;;8.40;2.92;;;;;;;8.23;82.07;101311.88;4998657;28;20049;-78
2023/03/04 11:02:41;;;;;;;6.25;2.03;;;;;;;8.65;80.91;101287.97;5006638;28;20104;-81
2023/03/04 11:05:33;;;;;;;4.85;1.45;;;;;;;8.49;78.37;101300.00;4986262;28;20050;-77
2023/03/04 11:10:44;;;;;;;7.00;1.52;;;;;;;8.35;79.50;101305.91;4994671;28;20073;-80
2023/03/04 11:13:22;;;;;;;5.10;1.70;;;;;;;7.87;80.10;101305.34;5013577;28;20544;-76
2023/03/04 11:16:03;;;;;;;5.22;1.58;;;;;;;7.32;82.51;101317.63;4993568;28;20065;-79
2023/03/04 11:18:55;;;;;;;5.10;2.17;;;;;;;6.76;87.03;101324.53;4979978;28;20436;-76
2023/03/04 11:21:30;;;;;;;3.38;1.25;;;;;;;6.41;89.94;101317.84;4996796;28;20046;-77
2023/03/04 11:24:14;;;;;;;6.93;1.77;;;;;;;6.32;90.75;101302.03;4996383;28;20404;-81
2023/03/04 11:26:44;;;;;;;;;;;;;;;6.29;88.43;101315.00;4997992;28;20055;-78
2023/03/04 11:33:54;;;;;;;8.55;2.63;;;;;;;6.50;86.20;101311.91;4968289;28;20093;-76
2023/03/04 11:36:45;;;;;;;10.88;2.92;;;;;;;7.15;83.94;101304.34;4985779;28;20077;-79
2023/03/04 11:39:34;;;;;;;4.63;1.65;;;;;;;7.70;80.80;101299.06;4996245;28;20087;-81
2023/03/04 11:42:18;;;;;;;10.70;3.25;;;;;;;8.48;76.66;101306.94;5012006;28;20061;-80
2023/03/04 11:44:44;;;;;;;13.32;3.33;;;;;;;8.59;74.58;101294.88;4992665;28;20054;-76
2023/03/04 11:47:39;;;;;;;9.00;3.67;;;;;;;9.75;71.18;101286.97;4995425;28;20057;-80
2023/03/04 11:50:31;;;;;;;7.95;2.72;;;;;;;10.83;67.69;101287.25;4995741;28;20038;-78
2023/03/04 11:53:33;;;;;;;6.22;2.47;;;;;;;10.08;67.65;101288.84;4993777;28;20038;-79